Time;durP1;ratioP1;P1;durP2;ratioP2;P2;SDS_P1;SDS_P2;PMS_P1;PMS_P2;Temp;Humidity;BMP_temperature;BMP_pressure;BME280_temperature;BME280_humidity;BME280_pressure;Samples;Min_cycle;Max_cycle;Signal;HPM_P1;HPM_P2
2021/12/21 00:01:09;;;;;;;;;;;-0.10;99.90;;;;;;5114067;28;20461;-84
2021/12/21 00:03:36;;;;;;;;;;;-0.20;99.90;;;;;;5114239;28;20055;-84
2021/12/21 00:06:03;;;;;;;;;;;-0.30;99.90;;;;;;5114079;28;20440;-84
2021/12/21 00:08:29;;;;;;;;;;;-0.20;99.90;;;;;;5114470;28;19995;-84
2021/12/21 00:10:58;;;;;;;;;;;-0.30;99.90;;;;;;5114434;28;20002;-84
2021/12/21 00:13:39;;;;;;;;;;;-0.20;99.90;;;;;;5114011;28;19985;-84
2021/12/21 00:16:15;;;;;;;;;;;-0.30;99.90;;;;;;5114152;28;19947;-85
2021/12/21 00:18:47;;;;;;;;;;;-0.30;99.90;;;;;;5113845;28;19943;-85
2021/12/21 00:21:24;;;;;;;;;;;-0.20;99.90;;;;;;5114018;28;19949;-84
2021/12/21 00:23:56;;;;;;;;;;;-0.30;99.90;;;;;;5114090;28;19960;-84
2021/12/21 00:26:23;;;;;;;;;;;-0.30;99.90;;;;;;5114268;28;19946;-85
2021/12/21 00:28:56;;;;;;;;;;;-0.40;99.90;;;;;;5113939;28;20376;-85
2021/12/21 00:31:23;;;;;;;;;;;-0.30;99.90;;;;;;5114025;28;19945;-84
2021/12/21 00:33:50;;;;;;;;;;;-0.20;99.90;;;;;;5114018;28;20003;-85
2021/12/21 00:36:17;;;;;;;;;;;-0.20;99.90;;;;;;5113963;28;20043;-85
2021/12/21 00:38:44;;;;;;;;;;;-0.20;99.90;;;;;;5113791;28;19949;-84
2021/12/21 00:41:11;;;;;;;;;;;-0.10;99.90;;;;;;5114058;28;19992;-84
2021/12/21 00:43:38;;;;;;;;;;;-0.10;99.90;;;;;;5113749;28;20053;-84
2021/12/21 00:46:06;;;;;;;;;;;-0.20;99.90;;;;;;5113875;28;20040;-84
2021/12/21 00:48:34;;;;;;;;;;;-0.20;99.90;;;;;;5114244;28;19987;-84
2021/12/21 00:51:02;;;;;;;;;;;-0.30;99.90;;;;;;5113982;28;19951;-84
2021/12/21 00:53:29;;;;;;;;;;;-0.40;99.90;;;;;;5113769;28;20421;-83
2021/12/21 00:55:56;;;;;;;;;;;-0.50;99.90;;;;;;5113774;28;19995;-84
2021/12/21 00:58:23;;;;;;;;;;;-0.50;99.90;;;;;;5113689;28;20036;-85
2021/12/21 01:00:49;;;;;;;;;;;-0.60;99.90;;;;;;5113930;28;20046;-85
2021/12/21 01:03:18;;;;;;;;;;;-0.60;99.90;;;;;;5113745;28;20015;-85
2021/12/21 01:05:51;;;;;;;;;;;-0.70;99.90;;;;;;5113789;28;19977;-86
2021/12/21 01:08:22;;;;;;;;;;;-0.80;99.90;;;;;;5113635;28;19924;-85
2021/12/21 01:11:01;;;;;;;;;;;-0.80;99.90;;;;;;5113854;28;20455;-85
2021/12/21 01:13:32;;;;;;;;;;;-0.90;99.90;;;;;;5117349;28;19930;-86
2021/12/21 01:16:18;;;;;;;;;;;-1.00;99.90;;;;;;5117579;28;19954;-86
2021/12/21 01:19:02;;;;;;;;;;;-1.10;99.90;;;;;;5117550;28;20027;-86
2021/12/21 01:21:32;;;;;;;;;;;-1.10;99.90;;;;;;5117368;28;19942;-85
2021/12/21 01:24:13;;;;;;;;;;;-1.10;99.90;;;;;;5117302;28;20005;-85
2021/12/21 01:26:52;;;;;;;;;;;-1.10;99.90;;;;;;5117286;28;20379;-85
2021/12/21 01:29:26;;;;;;;;;;;-1.10;99.90;;;;;;5117253;28;19988;-85
2021/12/21 01:32:01;;;;;;;;;;;-1.10;99.90;;;;;;5117607;28;19931;-85
2021/12/21 01:34:40;;;;;;;;;;;-1.20;99.90;;;;;;5118494;28;19941;-85
2021/12/21 01:37:15;;;;;;;;;;;-1.20;99.90;;;;;;5120883;28;19927;-85
2021/12/21 01:39:55;;;;;;;;;;;-1.20;99.90;;;;;;5117483;28;19969;-84
2021/12/21 01:42:33;;;;;;;;;;;-1.20;99.90;;;;;;5117198;28;19947;-85
2021/12/21 01:50:24;;;;;;;;;;;;;;;;;;5093569;28;19947;-85
2021/12/21 01:52:51;;;;;;;;;;;;;;;;;;5116980;28;20006;-85
2021/12/21 01:55:18;;;;;;;;;;;;;;;;;;5116733;28;20022;-85
2021/12/21 01:57:45;;;;;;;;;;;;;;;;;;5116760;28;20007;-85
2021/12/21 02:00:12;;;;;;;;;;;;;;;;;;5116692;28;20096;-85
2021/12/21 02:02:39;;;;;;;;;;;;;;;;;;5116479;28;20015;-85
2021/12/21 02:05:06;;;;;;;;;;;;;;;;;;5116652;28;20044;-85
2021/12/21 02:07:33;;;;;;;;;;;;;;;;;;5116361;28;20480;-85
2021/12/21 02:10:00;;;;;;;;;;;;;;;;;;5116503;28;20007;-85
2021/12/21 02:12:27;;;;;;;;;;;;;;;;;;5116257;28;20037;-85
2021/12/21 02:14:57;;;;;;;;;;;;;;;;;;5116265;28;20019;-85
2021/12/21 02:18:04;;;;;;;;;;;;;;;;;;5116192;28;19924;-85
2021/12/21 02:20:42;;;;;;;;;;;;;;;;;;5115148;28;19923;-85
2021/12/21 02:23:13;;;;;;;;;;;;;;;;;;5115120;28;19947;-85
2021/12/21 02:28:45;;;;;;;;;;;;;;;;;;5116102;28;19975;-85
2021/12/21 02:31:13;;;;;;;;;;;;;;;;;;5115841;28;19923;-85
2021/12/21 02:33:40;;;;;;;;;;;;;;;;;;5115908;28;19977;-85
2021/12/21 02:36:07;;;;;;;;;;;;;;;;;;5115830;28;19946;-85
2021/12/21 02:38:34;;;;;;;;;;;;;;;;;;5116211;28;20020;-85
2021/12/21 02:41:01;;;;;;;;;;;;;;;;;;5115790;28;20469;-85
2021/12/21 02:43:29;;;;;;;;;;;;;;;;;;5115890;28;20011;-85
2021/12/21 02:45:56;;;;;;;;;;;;;;;;;;5115665;28;19942;-86
2021/12/21 02:48:23;;;;;;;;;;;;;;;;;;5115598;28;20021;-85
2021/12/21 02:50:50;;;;;;;;;;;;;;;;;;5115535;28;20007;-86
2021/12/21 02:53:17;;;;;;;;;;;;;;;;;;5116005;28;20015;-85
2021/12/21 02:55:44;;;;;;;;;;;;;;;;;;5115587;28;20353;-85
2021/12/21 02:58:11;;;;;;;;;;;;;;;;;;5115680;28;20015;-85
2021/12/21 03:00:38;;;;;;;;;;;;;;;;;;5115581;28;19997;-85
2021/12/21 03:03:12;;;;;;;;;;;;;;;;;;5115369;28;19996;-85
2021/12/21 03:05:39;;;;;;;;;;;;;;;;;;5115580;28;19971;-85
2021/12/21 03:08:14;;;;;;;;;;;;;;;;;;5115377;28;19927;-85
2021/12/21 03:10:58;;;;;;;;;;;;;;;;;;5115412;28;19972;-85
2021/12/21 03:16:10;;;;;;;;;;;;;;;;;;5116495;28;19929;-85
2021/12/21 03:18:37;;;;;;;;;;;;;;;;;;5116261;28;19949;-85
2021/12/21 03:21:04;;;;;;;;;;;;;;;;;;5115738;28;20030;-85
2021/12/21 03:23:31;;;;;;;;;;;;;;;;;;5114390;28;20341;-85
2021/12/21 03:25:58;;;;;;;;;;;;;;;;;;5114950;28;20049;-85
2021/12/21 03:28:25;;;;;;;;;;;;;;;;;;5114990;28;20024;-85
2021/12/21 03:30:52;;;;;;;;;;;;;;;;;;5114851;28;20044;-85
2021/12/21 03:33:19;;;;;;;;;;;;;;;;;;5114981;28;20010;-85
2021/12/21 03:35:46;;;;;;;;;;;;;;;;;;5114143;28;20366;-85
2021/12/21 03:38:14;;;;;;;;;;;;;;;;;;5114765;28;20040;-85
2021/12/21 03:40:41;;;;;;;;;;;;;;;;;;5114673;28;20011;-86
2021/12/21 03:43:10;;;;;;;;;;;;;;;;;;5114678;28;19974;-86
2021/12/21 03:45:40;;;;;;;;;;;;;;;;;;5114730;28;19938;-86
2021/12/21 03:48:12;;;;;;;;;;;;;;;;;;5114516;28;20371;-85
2021/12/21 03:50:39;;;;;;;;;;;;;;;;;;5114942;28;20019;-85
2021/12/21 03:53:06;;;;;;;;;;;;;;;;;;5114528;28;19990;-85
2021/12/21 03:55:33;;;;;;;;;;;;;;;;;;5114487;28;20028;-85
2021/12/21 03:58:00;;;;;;;;;;;;;;;;;;5114670;28;19948;-85
2021/12/21 04:00:28;;;;;;;;;;;;;;;;;;5114355;28;20381;-85
2021/12/21 04:02:55;;;;;;;;;;;;;;;;;;5114422;28;20029;-86
2021/12/21 04:05:22;;;;;;;;;;;;;;;;;;5114234;28;19928;-85
2021/12/21 04:07:49;;;;;;;;;;;;;;;;;;5114246;28;20029;-86
2021/12/21 04:10:16;;;;;;;;;;;;;;;;;;5114181;28;20040;-84
2021/12/21 04:12:43;;;;;;;;;;;;;;;;;;5114105;28;20052;-85
2021/12/21 04:15:12;;;;;;;;;;;;;;;;;;5114275;28;20363;-86
2021/12/21 04:17:39;;;;;;;;;;;;;;;;;;5114247;28;19942;-85
2021/12/21 04:20:06;;;;;;;;;;;;;;;;;;5114110;28;19999;-86
2021/12/21 04:22:33;;;;;;;;;;;;;;;;;;5114035;28;20437;-85
2021/12/21 04:25:00;;;;;;;;;;;;;;;;;;5114134;28;20052;-86
2021/12/21 04:27:27;;;;;;;;;;;;;;;;;;5114438;28;20002;-86
2021/12/21 04:29:54;;;;;;;;;;;;;;;;;;5114992;28;20040;-85
2021/12/21 04:32:21;;;;;;;;;;;;;;;;;;5113981;28;20034;-86
2021/12/21 04:34:49;;;;;;;;;;;;;;;;;;5113869;28;20349;-86
2021/12/21 04:37:16;;;;;;;;;;;;;;;;;;5114140;28;20033;-86
2021/12/21 04:39:49;;;;;;;;;;;;;;;;;;5114028;28;19951;-86
2021/12/21 04:42:16;;;;;;;;;;;;;;;;;;5113957;28;19943;-86
2021/12/21 04:44:43;;;;;;;;;;;;;;;;;;5113858;28;20052;-86
2021/12/21 04:47:10;;;;;;;;;;;;;;;;;;5117455;28;20040;-86
2021/12/21 04:49:37;;;;;;;;;;;;;;;;;;5118028;28;20033;-85
2021/12/21 04:52:04;;;;;;;;;;;;;;;;;;5117977;28;20454;-86
2021/12/21 04:54:31;;;;;;;;;;;;;;;;;;5118168;28;20034;-86
2021/12/21 04:56:58;;;;;;;;;;;;;;;;;;5118349;28;19971;-86
2021/12/21 04:59:25;;;;;;;;;;;;;;;;;;5119414;28;20030;-86
2021/12/21 05:01:54;;;;;;;;;;;;;;;;;;5124109;28;19998;-86
2021/12/21 05:04:21;;;;;;;;;;;;;;;;;;5120268;28;20016;-86
2021/12/21 05:06:49;;;;;;;;;;;;;;;;;;5117879;28;20022;-86
2021/12/21 05:09:24;;;;;;;;;;;;;;;;;;5117705;28;19946;-86
2021/12/21 05:11:53;;;;;;;;;;;;;;;;;;5117631;28;19930;-86
2021/12/21 05:14:20;;;;;;;;;;;;;;;;;;5117593;28;20363;-86
2021/12/21 05:16:47;;;;;;;;;;;;;;;;;;5117710;28;20019;-86
2021/12/21 05:19:14;;;;;;;;;;;;;;;;;;5117602;28;20011;-86
2021/12/21 05:21:41;;;;;;;;;;;;;;;;;;5117378;28;20492;-86
2021/12/21 05:24:08;;;;;;;;;;;;;;;;;;5117152;28;20018;-86
2021/12/21 05:26:37;;;;;;;;;;;;;;;;;;5117426;28;20014;-85
2021/12/21 05:29:04;;;;;;;;;;;;;;;;;;5117195;28;20352;-86
2021/12/21 05:31:31;;;;;;;;;;;;;;;;;;5117418;28;20018;-86
2021/12/21 05:33:58;;;;;;;;;;;;;;;;;;5117366;28;20006;-86
2021/12/21 05:36:25;;;;;;;;;;;;;;;;;;5117377;28;19924;-86
2021/12/21 05:38:57;;;;;;;;;;;;;;;;;;5117101;28;20030;-86
2021/12/21 05:41:27;;;;;;;;;;;;;;;;;;5116356;28;19932;-85
2021/12/21 05:43:54;;;;;;;;;;;;;;;;;;5116855;28;19967;-85
2021/12/21 05:46:21;;;;;;;;;;;;;;;;;;5116994;28;20014;-86
2021/12/21 05:48:51;;;;;;;;;;;;;;;;;;5116908;28;20014;-85
2021/12/21 05:51:18;;;;;;;;;;;;;;;;;;5115515;28;20029;-85
2021/12/21 05:53:45;;;;;;;;;;;;;;;;;;5114938;28;20015;-86
2021/12/21 05:56:12;;;;;;;;;;;;;;;;;;5116190;28;20029;-86
2021/12/21 05:58:39;;;;;;;;;;;;;;;;;;5115592;28;20473;-86
2021/12/21 06:01:06;;;;;;;;;;;;;;;;;;5116742;28;20023;-86
2021/12/21 06:03:33;;;;;;;;;;;;;;;;;;5117268;27;19983;-86
2021/12/21 06:06:00;;;;;;;;;;;;;;;;;;5116271;28;20500;-86
2021/12/21 06:08:27;;;;;;;;;;;;;;;;;;5116512;28;20441;-86
2021/12/21 06:10:56;;;;;;;;;;;;;;;;;;5116687;28;19982;-86
2021/12/21 06:16:25;;;;;;;;;;;;;;;;;;5115207;28;19924;-86
2021/12/21 06:27:06;;;;;;;;;;;;;;;;;;5116209;28;20064;-86
2021/12/21 06:29:33;;;;;;;;;;;;;;;;;;5115994;28;20351;-86
2021/12/21 06:32:00;;;;;;;;;;;;;;;;;;5116347;28;20038;-86
2021/12/21 06:34:27;;;;;;;;;;;;;;;;;;5116171;28;20039;-86
2021/12/21 06:36:54;;;;;;;;;;;;;;;;;;5116096;28;20032;-86
2021/12/21 06:39:22;;;;;;;;;;;;;;;;;;5116153;28;19980;-86
2021/12/21 06:41:49;;;;;;;;;;;;;;;;;;5116672;28;19939;-86
2021/12/21 06:44:16;;;;;;;;;;;;;;;;;;5116772;28;20018;-85
2021/12/21 06:47:04;;;;;;;;;;;;;;;;;;5116221;28;19988;-87
2021/12/21 06:52:16;;;;;;;;;;;;;;;;;;5095526;28;20438;-87
2021/12/21 06:54:43;;;;;;;;;;;;;;;;;;5100984;28;20344;-86
2021/12/21 06:57:10;;;;;;;;;;;;;;;;;;5113602;28;19923;-86
2021/12/21 06:59:37;;;;;;;;;;;;;;;;;;5115058;28;19981;-87
2021/12/21 07:02:04;;;;;;;;;;;;;;;;;;5114037;28;20092;-85
2021/12/21 07:04:31;;;;;;;;;;;;;;;;;;5114941;28;19949;-87
2021/12/21 07:06:59;;;;;;;;;;;;;;;;;;5114907;28;19952;-86
2021/12/21 07:09:32;;;;;;;;;;;;;;;;;;5115227;28;19962;-86
2021/12/21 07:12:18;;;;;;;;;;;;;;;;;;5115184;28;20008;-86
2021/12/21 07:20:17;;;;;;;;;;;;;;;;;;5113055;28;19937;-87
2021/12/21 07:22:44;;;;;;;;;;;;;;;;;;5114482;28;20010;-87
2021/12/21 07:25:11;;;;;;;;;;;;;;;;;;5114869;28;20005;-85
2021/12/21 07:27:38;;;;;;;;;;;;;;;;;;5114766;28;20011;-86
2021/12/21 07:30:05;;;;;;;;;;;;;;;;;;5114856;28;20369;-86
2021/12/21 07:32:32;;;;;;;;;;;;;;;;;;5114749;28;20029;-86
2021/12/21 07:34:59;;;;;;;;;;;;;;;;;;5114945;28;19924;-86
2021/12/21 07:37:26;;;;;;;;;;;;;;;;;;5114310;28;20404;-85
2021/12/21 07:39:53;;;;;;;;;;;;;;;;;;5114452;28;20431;-85
2021/12/21 07:42:20;;;;;;;;;;;;;;;;;;5114090;28;20034;-85
2021/12/21 07:44:47;;;;;;;;;;;;;;;;;;5114671;28;20025;-86
2021/12/21 07:47:14;;;;;;;;;;;;;;;;;;5113788;28;20372;-85
2021/12/21 07:49:41;;;;;;;;;;;;;;;;;;5114453;28;19976;-85
2021/12/21 07:52:09;;;;;;;;;;;;;;;;;;5114079;28;20037;-86
2021/12/21 07:54:36;;;;;;;;;;;;;;;;;;5113944;28;20467;-84
2021/12/21 07:57:03;;;;;;;;;;;;;;;;;;5114470;28;20022;-84
2021/12/21 07:59:30;;;;;;;;;;;;;;;;;;5114302;28;20023;-84
2021/12/21 08:01:57;;;;;;;;;;;;;;;;;;5114164;28;20010;-85
2021/12/21 08:04:27;;;;;;;;;;;;;;;;;;5114095;28;20006;-85
2021/12/21 08:06:56;;;;;;;;;;;;;;;;;;5114259;28;19924;-85
2021/12/21 08:09:25;;;;;;;;;;;;;;;;;;5114121;28;20445;-85
2021/12/21 08:14:37;;;;;;;;;;;;;;;;;;5114244;28;19923;-85
2021/12/21 08:17:04;;;;;;;;;;;;;;;;;;5114153;28;20010;-84
2021/12/21 08:19:31;;;;;;;;;;;;;;;;;;5114087;28;19994;-85
2021/12/21 08:21:58;;;;;;;;;;;;;;;;;;5113560;28;20073;-84
2021/12/21 08:24:25;;;;;;;;;;;;;;;;;;5114251;28;20029;-85
2021/12/21 08:26:52;;;;;;;;;;;;;;;;;;5114638;28;20442;-85
2021/12/21 08:29:19;;;;;;;;;;;;;;;;;;5116339;28;19975;-84
2021/12/21 08:31:46;;;;;;;;;;;;;;;;;;5114026;28;19978;-85
2021/12/21 08:34:15;;;;;;;;;;;;;;;;;;5113463;28;20032;-83
2021/12/21 08:36:42;;;;;;;;;;;;;;;;;;5114008;28;19924;-85
2021/12/21 08:39:10;;;;;;;;;;;;;;;;;;5113716;28;20028;-86
2021/12/21 08:41:41;;;;;;;;;;;;;;;;;;5113610;28;20436;-82
2021/12/21 08:44:10;;;;;;;;;;;;;;;;;;5113924;28;19938;-83
2021/12/21 08:46:37;;;;;;;;;;;;;;;;;;5113054;28;20371;-84
2021/12/21 08:49:04;;;;;;;;;;;;;;;;;;5113355;28;20022;-84
2021/12/21 08:51:31;;;;;;;;;;;;;;;;;;5114074;28;20411;-83
2021/12/21 08:53:58;;;;;;;;;;;;;;;;;;5113676;28;20003;-84
2021/12/21 08:56:25;;;;;;;;;;;;;;;;;;5113500;28;20008;-82
2021/12/21 08:58:52;;;;;;;;;;;;;;;;;;5113722;28;20040;-84
2021/12/21 09:01:19;;;;;;;;;;;;;;;;;;5113189;28;19998;-83
2021/12/21 09:03:47;;;;;;;;;;;;;;;;;;5113898;28;20010;-84
2021/12/21 09:06:14;;;;;;;;;;;;;;;;;;5113571;28;19924;-84
2021/12/21 09:08:41;;;;;;;;;;;;;;;;;;5113740;28;20033;-83
2021/12/21 09:11:08;;;;;;;;;;;;;;;;;;5113603;28;19924;-83
2021/12/21 09:13:35;;;;;;;;;;;;;;;;;;5113553;28;20063;-83
2021/12/21 09:16:02;;;;;;;;;;;;;;;;;;5113426;28;20012;-83
2021/12/21 09:18:29;;;;;;;;;;;;;;;;;;5113685;28;20037;-83
2021/12/21 09:20:56;;;;;;;;;;;;;;;;;;5112866;28;20353;-82
2021/12/21 09:23:24;;;;;;;;;;;;;;;;;;5113462;28;20040;-83
2021/12/21 09:25:51;;;;;;;;;;;;;;;;;;5113294;28;20313;-83
2021/12/21 09:28:18;;;;;;;;;;;;;;;;;;5113313;28;20005;-83
2021/12/21 09:30:46;;;;;;;;;;;;;;;;;;5113276;28;20370;-82
2021/12/21 09:33:13;;;;;;;;;;;;;;;;;;5115284;28;19977;-82
2021/12/21 09:35:40;;;;;;;;;;;;;;;;;;5117202;28;20029;-83
2021/12/21 09:38:07;;;;;;;;;;;;;;;;;;5117184;28;20033;-82
2021/12/21 09:40:38;;;;;;;;;;;;;;;;;;5116582;28;19974;-83
2021/12/21 09:43:05;;;;;;;;;;;;;;;;;;5116450;28;19924;-83
2021/12/21 09:45:32;;;;;;;;;;;;;;;;;;5116681;28;20011;-83
2021/12/21 09:47:59;;;;;;;;;;;;;;;;;;5117144;28;20007;-82
2021/12/21 09:50:26;;;;;;;;;;;;;;;;;;5116749;28;20424;-82
2021/12/21 09:52:53;;;;;;;;;;;;;;;;;;5116509;28;20010;-83
2021/12/21 09:55:20;;;;;;;;;;;;;;;;;;5116690;28;20010;-83
2021/12/21 09:57:48;;;;;;;;;;;;;;;;;;5116285;28;20023;-82
2021/12/21 10:00:15;;;;;;;;;;;;;;;;;;5116665;28;20006;-83
2021/12/21 10:02:42;;;;;;;;;;;;;;;;;;5116072;28;20363;-82
2021/12/21 10:05:09;;;;;;;;;;;;;;;;;;5116293;28;20003;-82
2021/12/21 10:07:36;;;;;;;;;;;;;;;;;;5116292;28;20007;-83
2021/12/21 10:10:03;;;;;;;;;;;;;;;;;;5116342;28;20042;-83
2021/12/21 10:12:30;;;;;;;;;;;;;;;;;;5116005;28;20002;-83
2021/12/21 10:14:57;;;;;;;;;;;;;;;;;;5115909;28;19934;-83
2021/12/21 10:17:24;;;;;;;;;;;;;;;;;;5116313;28;20011;-83
2021/12/21 10:19:51;;;;;;;;;;;;;;;;;;5115913;28;19924;-83
2021/12/21 10:22:18;;;;;;;;;;;;;;;;;;5116218;28;19946;-83
2021/12/21 10:24:45;;;;;;;;;;;;;;;;;;5115748;28;19996;-82
2021/12/21 10:27:12;;;;;;;;;;;;;;;;;;5115935;28;20367;-84
2021/12/21 10:29:39;;;;;;;;;;;;;;;;;;5115900;28;19998;-84
2021/12/21 10:32:06;;;;;;;;;;;;;;;;;;5115297;28;20349;-82
2021/12/21 10:34:33;;;;;;;;;;;;;;;;;;5115747;28;20027;-83
2021/12/21 10:37:01;;;;;;;;;;;;;;;;;;5115543;28;20037;-83
2021/12/21 10:39:31;;;;;;;;;;;;;;;;;;5115732;28;19935;-82
2021/12/21 10:41:58;;;;;;;;;;;;;;;;;;5115561;28;19938;-83
2021/12/21 10:44:25;;;;;;;;;;;;;;;;;;5115315;28;19959;-82
2021/12/21 10:46:52;;;;;;;;;;;;;;;;;;5115401;28;20069;-83
2021/12/21 10:49:19;;;;;;;;;;;;;;;;;;5115420;28;20025;-82
2021/12/21 10:51:46;;;;;;;;;;;;;;;;;;5115291;28;19942;-83
2021/12/21 10:54:13;;;;;;;;;;;;;;;;;;5115771;28;20029;-83
2021/12/21 10:56:40;;;;;;;;;;;;;;;;;;5115275;28;20037;-82
2021/12/21 10:59:07;;;;;;;;;;;;;;;;;;5115440;28;20443;-83
2021/12/21 11:01:34;;;;;;;;;;;;;;;;;;5115191;28;20364;-82
2021/12/21 11:04:02;;;;;;;;;;;;;;;;;;5115414;28;20040;-82
2021/12/21 11:06:32;;;;;;;;;;;;;;;;;;5115209;28;19969;-82
2021/12/21 11:09:04;;;;;;;;;;;;;;;;;;5115227;28;20009;-81
2021/12/21 11:11:32;;;;;;;;;;;;;;;;;;5115253;28;19931;-82
2021/12/21 11:13:59;;;;;;;;;;;;;;;;;;5114631;28;20397;-81
2021/12/21 11:16:26;;;;;;;;;;;;;;;;;;5115222;28;20002;-81
2021/12/21 11:18:53;;;;;;;;;;;;;;;;;;5114683;28;20011;-82
2021/12/21 11:21:20;;;;;;;;;;;;;;;;;;5114990;28;20353;-82
2021/12/21 11:23:47;;;;;;;;;;;;;;;;;;5114765;28;20031;-81
2021/12/21 11:26:14;;;;;;;;;;;;;;;;;;5114618;28;20006;-82
2021/12/21 11:28:42;;;;;;;;;;;;;;;;;;5114889;28;19976;-82
2021/12/21 11:31:10;;;;;;;;;;;;;;;;;;5114340;28;19942;-83
2021/12/21 11:33:40;;;;;;;;;;;;;;;;;;5114470;28;19946;-81
2021/12/21 11:38:51;;;;;;;;;;;;;;;;;;5114534;28;19919;-80
2021/12/21 11:41:18;;;;;;;;;;;;;;;;;;5113316;28;19971;-82
2021/12/21 11:43:45;;;;;;;;;;;;;;;;;;5114007;28;19938;-82
2021/12/21 11:46:12;;;;;;;;;;;;;;;;;;5114594;28;20054;-81
2021/12/21 11:48:39;;;;;;;;;;;;;;;;;;5114166;28;20382;-82
2021/12/21 11:51:06;;;;;;;;;;;;;;;;;;5114629;28;20038;-81
2021/12/21 11:53:33;;;;;;;;;;;;;;;;;;5114299;28;19981;-84
2021/12/21 11:56:00;;;;;;;;;;;;;;;;;;5113971;28;20026;-82
2021/12/21 11:58:27;;;;;;;;;;;;;;;;;;5113843;28;20017;-82
2021/12/21 12:00:54;;;;;;;;;;;;;;;;;;5114546;28;20345;-83
2021/12/21 12:03:22;;;;;;;;;;;;;;;;;;5114122;28;19967;-81
2021/12/21 12:05:49;;;;;;;;;;;;;;;;;;5114112;28;19924;-84
2021/12/21 12:08:16;;;;;;;;;;;;;;;;;;5113810;28;20040;-84
2021/12/21 12:10:43;;;;;;;;;;;;;;;;;;5113642;28;20072;-84
2021/12/21 12:13:10;;;;;;;;;;;;;;;;;;5113916;28;20438;-83
2021/12/21 12:15:39;;;;;;;;;;;;;;;;;;5112924;28;21427;-82
2021/12/21 12:18:06;;;;;;;;;;;;;;;;;;5114219;28;20015;-82
2021/12/21 12:20:33;;;;;;;;;;;;;;;;;;5113517;28;20010;-83
2021/12/21 12:23:00;;;;;;;;;;;;;;;;;;5114009;28;20003;-86
2021/12/21 12:25:27;;;;;;;;;;;;;;;;;;5113592;28;20007;-84
2021/12/21 12:27:54;;;;;;;;;;;;;;;;;;5108883;28;20314;-81
2021/12/21 12:30:21;;;;;;;;;;;;;;;;;;5113928;28;20007;-81
2021/12/21 12:32:48;;;;;;;;;;;;;;;;;;5113247;28;20014;-80
2021/12/21 12:35:15;;;;;;;;;;;;;;;;;;5113713;28;20367;-80
2021/12/21 12:37:42;;;;;;;;;;;;;;;;;;5113370;28;20008;-79
2021/12/21 12:40:09;;;;;;;;;;;;;;;;;;5113102;28;20047;-80
2021/12/21 12:42:36;;;;;;;;;;;;;;;;;;5113417;28;20014;-80
2021/12/21 12:45:03;;;;;;;;;;;;;;;;;;5113239;28;20010;-82
2021/12/21 12:47:30;;;;;;;;;;;;;;;;;;5113265;28;20049;-81
2021/12/21 12:49:57;;;;;;;;;;;;;;;;;;5113752;28;20023;-80
2021/12/21 12:52:28;;;;;;;;;;;;;;;;;;5112351;28;20010;-82
2021/12/21 12:54:54;;;;;;;;;;;;;;;;;;5093224;28;19928;-80
2021/12/21 12:57:21;;;;;;;;;;;;;;;;;;5105084;28;20011;-81
2021/12/21 12:59:48;;;;;;;;;;;;;;;;;;5112981;28;20033;-81
2021/12/21 13:02:15;;;;;;;;;;;;;;;;;;5113446;28;20355;-81
2021/12/21 13:04:42;;;;;;;;;;;;;;;;;;5113724;28;20029;-80
2021/12/21 13:07:09;;;;;;;;;;;;;;;;;;5115008;28;20023;-80
2021/12/21 13:09:36;;;;;;;;;;;;;;;;;;5117718;28;20036;-79
2021/12/21 13:12:03;;;;;;;;;;;;;;;;;;5116595;28;20470;-79
2021/12/21 13:14:31;;;;;;;;;;;;;;;;;;5117558;28;19976;-78
2021/12/21 13:16:58;;;;;;;;;;;;;;;;;;5117086;28;19948;-79
2021/12/21 13:19:26;;;;;;;;;;;;;;;;;;5116967;28;20007;-79
2021/12/21 13:21:57;;;;;;;;;;;;;;;;;;5117388;28;20001;-79
2021/12/21 13:24:24;;;;;;;;;;;;;;;;;;5117261;28;19924;-79
2021/12/21 13:26:51;;;;;;;;;;;;;;;;;;5117266;28;19954;-79
2021/12/21 13:29:19;;;;;;;;;;;;;;;;;;5116812;28;20260;-80
2021/12/21 13:31:47;;;;;;;;;;;;;;;;;;5117050;28;19924;-79
2021/12/21 13:34:14;;;;;;;;;;;;;;;;;;5116524;28;19923;-79
2021/12/21 13:36:41;;;;;;;;;;;;;;;;;;5116887;28;20014;-80
2021/12/21 13:39:08;;;;;;;;;;;;;;;;;;5116508;28;20047;-79
2021/12/21 13:41:35;;;;;;;;;;;;;;;;;;5116854;28;19924;-78
2021/12/21 13:44:02;;;;;;;;;;;;;;;;;;5116644;28;19991;-80
2021/12/21 13:46:29;;;;;;;;;;;;;;;;;;5116256;28;20438;-79
2021/12/21 13:48:56;;;;;;;;;;;;;;;;;;5116357;28;20014;-78
2021/12/21 13:51:23;;;;;;;;;;;;;;;;;;5116619;28;19927;-78
2021/12/21 13:53:50;;;;;;;;;;;;;;;;;;5116567;28;19985;-79
2021/12/21 13:56:17;;;;;;;;;;;;;;;;;;5116224;28;20007;-77
2021/12/21 13:58:44;;;;;;;;;;;;;;;;;;5116516;28;20011;-79
2021/12/21 14:01:11;;;;;;;;;;;;;;;;;;5116000;28;20019;-78
2021/12/21 14:03:45;;;;;;;;;;;;;;;;;;5116243;28;20021;-79
2021/12/21 14:06:14;;;;;;;;;;;;;;;;;;5116405;28;19969;-79
2021/12/21 14:08:41;;;;;;;;;;;;;;;;;;5116355;28;19955;-78
2021/12/21 14:11:08;;;;;;;;;;;;;;;;;;5115958;28;19924;-79
2021/12/21 14:13:36;;;;;;;;;;;;;;;;;;5115770;28;19924;-78
2021/12/21 14:16:03;;;;;;;;;;;;;;;;;;5115930;28;19930;-79
2021/12/21 14:18:30;;;;;;;;;;;;;;;;;;5115341;28;20380;-79
2021/12/21 14:20:57;;;;;;;;;;;;;;;;;;5115919;28;20034;-80
2021/12/21 14:23:24;;;;;;;;;;;;;;;;;;5115637;28;20433;-78
2021/12/21 14:25:51;;;;;;;;;;;;;;;;;;5115500;28;19930;-79
2021/12/21 14:28:19;;;;;;;;;;;;;;;;;;5115597;28;20009;-79
2021/12/21 14:30:46;;;;;;;;;;;;;;;;;;5115464;28;20336;-80
2021/12/21 14:33:25;;;;;;;;;;;;;;;;;;5115371;28;19963;-80
2021/12/21 14:35:53;;;;;;;;;;;;;;;;;;5114684;28;19924;-80
2021/12/21 14:38:20;;;;;;;;;;;;;;;;;;5114187;28;19972;-81
2021/12/21 14:40:47;;;;;;;;;;;;;;;;;;5115110;28;20353;-82
2021/12/21 14:43:14;;;;;;;;;;;;;;;;;;5115127;28;19994;-81
2021/12/21 14:45:41;;;;;;;;;;;;;;;;;;5114928;28;20035;-80
2021/12/21 14:48:08;;;;;;;;;;;;;;;;;;5114986;28;20354;-80
2021/12/21 14:50:41;;;;;;;;;;;;;;;;;;5115474;28;19977;-81
2021/12/21 14:53:08;;;;;;;;;;;;;;;;;;5115467;28;19959;-81
2021/12/21 14:55:35;;;;;;;;;;;;;;;;;;5114594;28;19992;-81
2021/12/21 14:58:03;;;;;;;;;;;;;;;;;;5115591;28;20011;-82
2021/12/21 15:00:30;;;;;;;;;;;;;;;;;;5114930;28;19980;-80
2021/12/21 15:02:57;;;;;;;;;;;;;;;;;;5115133;28;20046;-81
2021/12/21 15:05:24;;;;;;;;;;;;;;;;;;5115419;28;20024;-81
2021/12/21 15:07:52;;;;;;;;;;;;;;;;;;5114761;28;20434;-81
2021/12/21 15:10:19;;;;;;;;;;;;;;;;;;5115179;28;20310;-82
2021/12/21 15:12:46;;;;;;;;;;;;;;;;;;5114497;28;19923;-82
2021/12/21 15:15:13;;;;;;;;;;;;;;;;;;5115167;28;19931;-82
2021/12/21 15:17:40;;;;;;;;;;;;;;;;;;5114688;28;20014;-82
2021/12/21 15:20:07;;;;;;;;;;;;;;;;;;5114894;28;19967;-81
2021/12/21 15:22:34;;;;;;;;;;;;;;;;;;5114382;28;20018;-81
2021/12/21 15:25:01;;;;;;;;;;;;;;;;;;5114334;28;19934;-82
2021/12/21 15:27:28;;;;;;;;;;;;;;;;;;5114187;28;19924;-81
2021/12/21 15:29:55;;;;;;;;;;;;;;;;;;5114097;28;20031;-81
2021/12/21 15:32:22;;;;;;;;;;;;;;;;;;5114463;28;20025;-81
2021/12/21 15:34:50;;;;;;;;;;;;;;;;;;5114812;28;20033;-82
2021/12/21 15:37:17;;;;;;;;;;;;;;;;;;5114537;28;19924;-81
2021/12/21 15:39:44;;;;;;;;;;;;;;;;;;5115311;28;20033;-82
2021/12/21 15:42:15;;;;;;;;;;;;;;;;;;5114408;28;19980;-81
2021/12/21 15:44:45;;;;;;;;;;;;;;;;;;5114548;28;20362;-81
2021/12/21 15:47:12;;;;;;;;;;;;;;;;;;5114164;28;19963;-81
2021/12/21 15:49:39;;;;;;;;;;;;;;;;;;5113836;28;20640;-82
2021/12/21 15:52:06;;;;;;;;;;;;;;;;;;5114263;28;20007;-82
2021/12/21 15:54:33;;;;;;;;;;;;;;;;;;5114232;28;20457;-82
2021/12/21 15:57:00;;;;;;;;;;;;;;;;;;5114136;28;20022;-83
2021/12/21 15:59:27;;;;;;;;;;;;;;;;;;5113572;28;20038;-82
2021/12/21 16:01:54;;;;;;;;;;;;;;;;;;5113837;28;20024;-82
2021/12/21 16:04:21;;;;;;;;;;;;;;;;;;5114170;28;19930;-82
2021/12/21 16:06:48;;;;;;;;;;;;;;;;;;5113976;28;19963;-82
2021/12/21 16:09:15;;;;;;;;;;;;;;;;;;5114400;28;19924;-82
2021/12/21 16:11:42;;;;;;;;;;;;;;;;;;5113194;28;19963;-81
2021/12/21 16:14:09;;;;;;;;;;;;;;;;;;5113991;28;20020;-82
2021/12/21 16:16:36;;;;;;;;;;;;;;;;;;5113437;28;20347;-82
2021/12/21 16:19:03;;;;;;;;;;;;;;;;;;5113634;28;20037;-82
2021/12/21 16:21:30;;;;;;;;;;;;;;;;;;5114012;28;19994;-81
2021/12/21 16:23:57;;;;;;;;;;;;;;;;;;5114186;28;20037;-81
2021/12/21 16:26:24;;;;;;;;;;;;;;;;;;5113673;28;20029;-81
2021/12/21 16:28:51;;;;;;;;;;;;;;;;;;5113836;28;20045;-82
2021/12/21 16:31:19;;;;;;;;;;;;;;;;;;5113389;28;19983;-82
2021/12/21 16:33:46;;;;;;;;;;;;;;;;;;5114157;28;19949;-82
2021/12/21 16:36:13;;;;;;;;;;;;;;;;;;5113552;28;20021;-83
2021/12/21 16:38:40;;;;;;;;;;;;;;;;;;5113924;28;20037;-82
2021/12/21 16:41:07;;;;;;;;;;;;;;;;;;5113834;28;20023;-82
2021/12/21 16:43:34;;;;;;;;;;;;;;;;;;5118050;28;20375;-82
2021/12/21 16:46:03;;;;;;;;;;;;;;;;;;5117705;28;19946;-82
2021/12/21 16:48:30;;;;;;;;;;;;;;;;;;5118132;28;19946;-83
2021/12/21 16:50:57;;;;;;;;;;;;;;;;;;5117530;28;19985;-82
2021/12/21 16:53:24;;;;;;;;;;;;;;;;;;5117916;28;20006;-83
2021/12/21 16:55:51;;;;;;;;;;;;;;;;;;5117660;28;20414;-82
2021/12/21 16:58:23;;;;;;;;;;;;;;;;;;5117867;28;20010;-82
2021/12/21 17:00:50;;;;;;;;;;;;;;;;;;5117492;28;19983;-82
2021/12/21 17:03:17;;;;;;;;;;;;;;;;;;5117816;28;19990;-83
2021/12/21 17:05:44;;;;;;;;;;;;;;;;;;5117718;28;20002;-83
2021/12/21 17:08:15;;;;;;;;;;;;;;;;;;5117584;28;20015;-81
2021/12/21 17:10:44;;;;;;;;;;;;;;;;;;5117257;28;19971;-82